Time;durP1;ratioP1;P1;durP2;ratioP2;P2;SDS_P1;SDS_P2;PMS_P1;PMS_P2;Temp;Humidity;BMP_temperature;BMP_pressure;BME280_temperature;BME280_humidity;BME280_pressure;Samples;Min_cycle;Max_cycle;Signal;HPM_P1;HPM_P2
2021/11/25 00:02:15;;;;;;;12.75;8.10;;;6.40;56.70;;;;;;4995870;28;20046;-73
2021/11/25 00:04:40;;;;;;;10.83;7.87;;;6.30;55.90;;;;;;4995825;28;20026;-72
2021/11/25 00:07:06;;;;;;;12.27;7.37;;;6.20;56.20;;;;;;4995725;28;20037;-73
2021/11/25 00:09:32;;;;;;;13.33;8.40;;;6.10;56.10;;;;;;4995901;28;20027;-73
2021/11/25 00:11:58;;;;;;;12.17;7.97;;;6.00;56.30;;;;;;4996183;28;20026;-74
2021/11/25 00:14:23;;;;;;;11.37;7.90;;;6.00;57.00;;;;;;4995967;28;20105;-73
2021/11/25 00:16:49;;;;;;;12.63;8.07;;;6.00;57.50;;;;;;4995896;28;20157;-73
2021/11/25 00:19:15;;;;;;;12.57;7.60;;;5.90;57.70;;;;;;4995749;28;20030;-73
2021/11/25 00:21:42;;;;;;;12.40;8.33;;;5.90;57.60;;;;;;4995778;28;20033;-73
2021/11/25 00:24:08;;;;;;;11.17;8.43;;;5.80;57.50;;;;;;4995677;28;20376;-69
2021/11/25 00:26:34;;;;;;;13.70;8.83;;;5.70;57.90;;;;;;4995618;28;20584;-73
2021/11/25 00:29:01;;;;;;;12.63;8.30;;;5.70;57.90;;;;;;4995296;28;20026;-73
2021/11/25 00:31:27;;;;;;;12.63;8.57;;;5.70;57.50;;;;;;4995249;28;20105;-73
2021/11/25 00:33:52;;;;;;;13.83;8.43;;;5.70;57.90;;;;;;4995185;28;20093;-73
2021/11/25 00:36:18;;;;;;;13.37;8.70;;;5.80;58.10;;;;;;4994672;28;20021;-73
2021/11/25 00:38:44;;;;;;;14.17;7.90;;;5.80;58.50;;;;;;4995552;28;20095;-72
2021/11/25 00:41:10;;;;;;;14.67;8.87;;;5.80;58.40;;;;;;4995204;28;20018;-73
2021/11/25 00:43:35;;;;;;;12.90;7.67;;;5.80;58.50;;;;;;4995304;28;20054;-73
2021/11/25 00:46:01;;;;;;;12.83;7.97;;;5.80;58.80;;;;;;4995348;28;20105;-73
2021/11/25 00:48:27;;;;;;;12.37;8.10;;;5.80;58.10;;;;;;4995153;28;20073;-73
2021/11/25 00:50:53;;;;;;;12.13;7.83;;;5.70;58.20;;;;;;4994991;28;20049;-73
2021/11/25 01:06:46;;;;;;;13.30;8.03;;;5.80;57.60;;;;;;3480792;28;20053;-73
2021/11/25 01:09:12;;;;;;;10.33;6.93;;;5.70;57.50;;;;;;4994778;28;20030;-73
2021/11/25 01:11:38;;;;;;;11.20;6.70;;;5.70;57.00;;;;;;4995031;28;20030;-73
2021/11/25 01:14:03;;;;;;;11.87;7.53;;;5.60;57.10;;;;;;4994738;28;20026;-72
2021/11/25 01:16:29;;;;;;;9.70;7.63;;;5.60;57.20;;;;;;4994640;28;20022;-73
2021/11/25 01:18:55;;;;;;;9.83;6.83;;;5.60;57.40;;;;;;4994568;28;20022;-72
2021/11/25 01:21:21;;;;;;;9.67;6.73;;;5.70;57.40;;;;;;4994620;28;20113;-72
2021/11/25 01:23:46;;;;;;;11.97;6.93;;;5.70;57.50;;;;;;4994654;28;20034;-73
2021/11/25 01:26:12;;;;;;;9.20;6.60;;;5.70;57.40;;;;;;4994370;28;20070;-71
2021/11/25 01:28:38;;;;;;;10.07;6.87;;;5.70;57.30;;;;;;4994227;28;20033;-72
2021/11/25 01:31:04;;;;;;;11.17;7.30;;;5.70;57.50;;;;;;4994557;28;20467;-73
2021/11/25 01:33:31;;;;;;;9.63;6.53;;;5.70;57.70;;;;;;4994450;28;20101;-73
2021/11/25 01:35:58;;;;;;;11.23;6.60;;;5.80;57.50;;;;;;4994463;28;20026;-73
2021/11/25 01:38:25;;;;;;;9.83;6.80;;;5.70;57.10;;;;;;4994416;28;20486;-73
2021/11/25 01:40:53;;;;;;;9.60;6.40;;;5.80;57.10;;;;;;4994226;28;20018;-72
2021/11/25 01:43:21;;;;;;;9.23;6.87;;;5.80;57.50;;;;;;4994172;28;20038;-72
2021/11/25 01:45:49;;;;;;;11.30;7.40;;;5.80;57.40;;;;;;4993870;28;20037;-72
2021/11/25 01:48:15;;;;;;;12.67;7.47;;;5.90;57.30;;;;;;4993965;28;20479;-72
2021/11/25 01:50:41;;;;;;;11.07;7.60;;;5.80;57.30;;;;;;4993800;28;20094;-73
2021/11/25 01:53:07;;;;;;;10.50;6.90;;;5.80;56.90;;;;;;4993985;28;20030;-72
2021/11/25 01:55:33;;;;;;;10.73;7.13;;;5.80;57.50;;;;;;4994249;28;20053;-72
2021/11/25 01:57:59;;;;;;;11.03;7.07;;;5.80;57.70;;;;;;4992758;28;20030;-70
2021/11/25 02:00:30;;;;;;;8.90;6.40;;;5.80;57.70;;;;;;4990938;28;20467;-72
2021/11/25 02:02:57;;;;;;;10.40;7.10;;;5.80;57.50;;;;;;4991239;28;20436;-70
2021/11/25 02:05:23;;;;;;;10.83;7.20;;;5.80;57.80;;;;;;4992792;28;20027;-72
2021/11/25 02:07:49;;;;;;;16.33;7.67;;;5.80;58.00;;;;;;4993782;28;20057;-73
2021/11/25 02:10:16;;;;;;;10.63;7.73;;;5.80;58.10;;;;;;4993349;28;20438;-74
2021/11/25 02:12:42;;;;;;;11.90;7.20;;;5.80;58.00;;;;;;4993388;28;20444;-72
2021/11/25 02:15:10;;;;;;;10.90;7.57;;;5.80;58.10;;;;;;4993709;28;20037;-73
2021/11/25 02:17:36;;;;;;;11.80;7.97;;;5.80;58.60;;;;;;4993589;28;20030;-72
2021/11/25 02:20:05;;;;;;;11.50;7.13;;;5.80;58.90;;;;;;4993340;28;20522;-71
2021/11/25 02:22:31;;;;;;;10.83;8.00;;;5.80;58.70;;;;;;4993693;28;20030;-72
2021/11/25 02:24:56;;;;;;;10.00;7.77;;;5.80;58.90;;;;;;4993535;28;20026;-71
2021/11/25 02:27:23;;;;;;;13.53;8.10;;;5.70;59.10;;;;;;4993707;28;20026;-72
2021/11/25 02:29:49;;;;;;;12.00;8.03;;;5.70;59.50;;;;;;4993059;28;20494;-72
2021/11/25 02:32:35;;;;;;;14.07;7.87;;;5.70;59.20;;;;;;4993368;28;20459;-73
2021/11/25 02:35:02;;;;;;;13.07;8.20;;;5.70;59.20;;;;;;4993104;28;20030;-73
2021/11/25 02:37:28;;;;;;;9.93;7.47;;;5.70;59.40;;;;;;4993265;28;20102;-73
2021/11/25 02:39:53;;;;;;;12.20;8.07;;;5.70;59.10;;;;;;4993290;28;20420;-70
2021/11/25 02:42:19;;;;;;;12.73;8.57;;;5.80;59.60;;;;;;4993312;28;20368;-71
2021/11/25 02:44:45;;;;;;;10.63;7.93;;;5.80;59.10;;;;;;4993155;28;20425;-72
2021/11/25 02:47:11;;;;;;;11.80;7.93;;;5.80;59.00;;;;;;4993144;28;20038;-72
2021/11/25 02:49:41;;;;;;;11.40;7.83;;;5.80;58.70;;;;;;4992848;28;20027;-72
2021/11/25 02:52:07;;;;;;;9.73;7.27;;;5.80;58.70;;;;;;4992793;28;20066;-72
2021/11/25 02:54:33;;;;;;;12.80;8.87;;;5.80;57.90;;;;;;4993049;28;20030;-72
2021/11/25 02:56:58;;;;;;;12.27;8.53;;;5.70;57.70;;;;;;4993213;28;20030;-72
2021/11/25 02:59:24;;;;;;;13.70;8.03;;;5.60;58.00;;;;;;4996270;28;20031;-72
2021/11/25 03:01:50;;;;;;;13.07;7.67;;;5.60;57.80;;;;;;4997311;28;20487;-72
2021/11/25 03:04:16;;;;;;;13.63;8.30;;;5.50;58.40;;;;;;4996867;28;20109;-71
2021/11/25 03:06:41;;;;;;;10.90;7.37;;;5.40;58.40;;;;;;4996864;28;20061;-73
2021/11/25 03:09:07;;;;;;;12.30;8.43;;;5.40;58.40;;;;;;4996835;28;20023;-72
2021/11/25 03:11:34;;;;;;;13.23;8.13;;;5.40;58.50;;;;;;4997107;28;20011;-72
2021/11/25 03:14:04;;;;;;;14.27;7.40;;;5.30;58.60;;;;;;4996989;28;20014;-70
2021/11/25 03:16:31;;;;;;;11.07;7.60;;;5.30;58.50;;;;;;4996583;28;20498;-71
2021/11/25 03:18:57;;;;;;;12.20;7.47;;;5.30;58.60;;;;;;4996860;28;20042;-71
2021/11/25 03:21:25;;;;;;;11.13;6.93;;;5.20;58.70;;;;;;4997040;28;20054;-71
2021/11/25 03:23:52;;;;;;;11.23;7.30;;;5.20;58.70;;;;;;4996872;28;20027;-72
2021/11/25 03:26:19;;;;;;;10.33;7.20;;;5.10;58.70;;;;;;4996339;28;20034;-72
2021/11/25 03:28:45;;;;;;;14.80;7.63;;;5.10;59.10;;;;;;4996728;28;20073;-72
2021/11/25 03:31:24;;;;;;;13.13;7.90;;;5.00;59.50;;;;;;4996881;28;20062;-72
2021/11/25 03:33:51;;;;;;;11.40;6.83;;;5.00;59.50;;;;;;4996875;28;20424;-72
2021/11/25 03:36:18;;;;;;;13.33;7.50;;;5.00;59.40;;;;;;4996152;28;20467;-72
2021/11/25 03:38:43;;;;;;;10.40;7.40;;;4.90;59.30;;;;;;4996477;28;20026;-71
2021/11/25 03:41:12;;;;;;;10.97;7.30;;;4.90;59.60;;;;;;4996419;28;20031;-72
2021/11/25 03:43:39;;;;;;;11.77;7.50;;;4.90;59.50;;;;;;4996307;28;20030;-72
2021/11/25 03:46:05;;;;;;;13.03;8.40;;;4.80;59.80;;;;;;4996470;28;20498;-71
2021/11/25 03:48:31;;;;;;;12.13;8.57;;;4.80;60.50;;;;;;4996394;28;20101;-71
2021/11/25 03:50:58;;;;;;;13.17;8.20;;;4.80;60.90;;;;;;4996167;28;20482;-72
2021/11/25 03:53:24;;;;;;;16.10;9.20;;;4.90;61.50;;;;;;4996250;28;20375;-72
2021/11/25 03:55:51;;;;;;;16.30;9.10;;;4.90;61.80;;;;;;4996588;28;20429;-71
2021/11/25 03:58:16;;;;;;;12.13;8.43;;;5.00;61.80;;;;;;4996355;28;20095;-72
2021/11/25 04:00:42;;;;;;;12.00;7.80;;;5.10;61.30;;;;;;4995985;28;20176;-71
2021/11/25 04:03:08;;;;;;;14.90;8.03;;;5.10;60.40;;;;;;4996052;28;20064;-71
2021/11/25 04:05:34;;;;;;;11.10;7.47;;;5.10;60.10;;;;;;4995916;28;20070;-72
2021/11/25 04:08:00;;;;;;;11.27;7.87;;;5.10;60.20;;;;;;4995952;28;20116;-71
2021/11/25 04:10:26;;;;;;;10.70;7.47;;;5.10;60.10;;;;;;4994404;28;20046;-70
2021/11/25 04:12:52;;;;;;;11.30;7.40;;;5.10;59.90;;;;;;4996076;28;20117;-71
2021/11/25 04:15:18;;;;;;;10.37;7.13;;;5.00;59.90;;;;;;4996007;28;20058;-71
2021/11/25 04:17:44;;;;;;;12.80;8.10;;;5.00;60.00;;;;;;4995749;28;20026;-71
2021/11/25 04:20:11;;;;;;;11.17;7.50;;;5.00;60.30;;;;;;4995610;28;20050;-72
2021/11/25 04:22:37;;;;;;;12.97;7.53;;;4.90;60.20;;;;;;4995653;28;20025;-69
2021/11/25 04:25:05;;;;;;;11.53;7.00;;;4.90;60.30;;;;;;4995547;28;20018;-70
2021/11/25 04:27:31;;;;;;;18.50;7.73;;;4.90;60.10;;;;;;4995577;28;20026;-72
2021/11/25 04:37:51;;;;;;;13.17;7.60;;;4.60;60.50;;;;;;4995421;28;20056;-71
2021/11/25 04:40:17;;;;;;;12.93;7.23;;;4.60;60.70;;;;;;4995535;28;20470;-72
2021/11/25 04:42:43;;;;;;;14.87;7.67;;;4.50;61.10;;;;;;4995623;28;20061;-72
2021/11/25 04:45:09;;;;;;;14.93;7.43;;;4.50;61.00;;;;;;4995249;28;20050;-72
2021/11/25 04:47:35;;;;;;;19.17;7.90;;;4.50;61.20;;;;;;4995380;28;20088;-70
2021/11/25 04:50:00;;;;;;;13.93;6.77;;;4.50;61.20;;;;;;4995231;28;20022;-71
2021/11/25 04:52:26;;;;;;;11.77;6.90;;;4.50;61.50;;;;;;4995124;28;20073;-72
2021/11/25 04:54:52;;;;;;;12.27;7.33;;;4.40;61.40;;;;;;4995320;28;20022;-72
2021/11/25 04:57:17;;;;;;;11.63;7.40;;;4.40;62.20;;;;;;4994969;28;20033;-71
2021/11/25 04:59:43;;;;;;;12.17;6.30;;;4.30;62.80;;;;;;4995119;28;20496;-72
2021/11/25 05:02:09;;;;;;;11.13;7.00;;;4.40;62.60;;;;;;4993181;28;20030;-70
2021/11/25 05:04:35;;;;;;;15.17;7.07;;;4.40;62.60;;;;;;4992343;28;20041;-72
2021/11/25 05:07:00;;;;;;;8.97;5.97;;;4.50;62.80;;;;;;4992258;28;20058;-70
2021/11/25 05:09:26;;;;;;;11.10;7.33;;;4.50;63.00;;;;;;4994710;28;20537;-69
2021/11/25 05:11:52;;;;;;;13.10;7.53;;;4.50;62.10;;;;;;4994757;28;20041;-72
2021/11/25 05:14:17;;;;;;;12.07;7.40;;;4.50;62.40;;;;;;4994816;28;20026;-71
2021/11/25 05:16:44;;;;;;;12.57;7.50;;;4.50;62.70;;;;;;4994491;28;20483;-70
2021/11/25 05:19:11;;;;;;;9.67;6.70;;;4.40;63.20;;;;;;4994592;28;20037;-68
2021/11/25 05:21:37;;;;;;;13.43;7.20;;;4.40;63.50;;;;;;4994119;28;20390;-71
2021/11/25 05:24:03;;;;;;;19.60;6.83;;;4.50;63.20;;;;;;4994526;28;20030;-72
2021/11/25 05:26:29;;;;;;;13.43;6.97;;;4.60;62.80;;;;;;4994642;28;20038;-71
2021/11/25 05:28:54;;;;;;;12.53;6.73;;;4.60;62.10;;;;;;4994581;28;20038;-72
2021/11/25 05:31:22;;;;;;;10.23;6.57;;;4.50;62.60;;;;;;4994530;28;20069;-71
2021/11/25 05:33:48;;;;;;;14.97;7.73;;;4.60;62.90;;;;;;4977031;28;20435;-71
2021/11/25 05:36:14;;;;;;;14.23;8.17;;;4.60;62.70;;;;;;4994160;28;20027;-72
2021/11/25 05:38:40;;;;;;;13.33;8.03;;;4.50;62.90;;;;;;4992425;28;20518;-72
2021/11/25 05:41:05;;;;;;;13.40;7.23;;;4.40;63.80;;;;;;4992527;28;20030;-72
2021/11/25 05:43:31;;;;;;;16.20;7.17;;;4.40;64.20;;;;;;4993490;28;20025;-72
2021/11/25 05:45:57;;;;;;;13.77;7.00;;;4.40;64.50;;;;;;4994097;28;20471;-72
2021/11/25 05:48:23;;;;;;;16.10;7.33;;;4.50;64.30;;;;;;4994274;28;20475;-71
2021/11/25 05:50:50;;;;;;;16.40;7.90;;;4.50;64.20;;;;;;4994471;28;20030;-71
2021/11/25 05:53:20;;;;;;;14.53;8.33;;;4.50;64.20;;;;;;4994269;28;20077;-72
2021/11/25 05:55:48;;;;;;;14.93;9.20;;;4.60;64.00;;;;;;4993375;28;20027;-72
2021/11/25 05:58:15;;;;;;;11.13;7.57;;;4.60;64.00;;;;;;4976563;28;20419;-72
2021/11/25 06:00:41;;;;;;;8.73;6.53;;;4.60;64.30;;;;;;4994313;28;20539;-73
2021/11/25 06:03:07;;;;;;;14.77;7.47;;;4.70;64.20;;;;;;4994038;28;20023;-72
2021/11/25 06:05:33;;;;;;;12.57;7.83;;;4.70;63.90;;;;;;4993911;28;20387;-68
2021/11/25 06:07:59;;;;;;;13.40;7.60;;;4.80;64.00;;;;;;4993428;28;20105;-70
2021/11/25 06:10:26;;;;;;;14.07;8.47;;;4.90;64.00;;;;;;4994088;28;20376;-71
2021/11/25 06:12:52;;;;;;;13.23;7.53;;;4.90;64.20;;;;;;4994837;28;20030;-68
2021/11/25 06:15:20;;;;;;;13.10;7.80;;;4.90;64.10;;;;;;4994015;28;20434;-72
2021/11/25 06:17:46;;;;;;;16.10;8.70;;;5.00;64.00;;;;;;4993922;28;20101;-70
2021/11/25 06:20:14;;;;;;;13.67;7.90;;;5.00;63.90;;;;;;4992509;28;20027;-71
2021/11/25 06:22:42;;;;;;;22.70;11.63;;;5.00;63.60;;;;;;4992462;28;20049;-69
2021/11/25 06:25:10;;;;;;;21.83;9.83;;;5.00;63.40;;;;;;4993780;28;20085;-70
2021/11/25 06:27:37;;;;;;;20.37;12.57;;;5.00;63.50;;;;;;4993687;28;20030;-72
2021/11/25 06:30:06;;;;;;;26.20;15.20;;;5.00;63.60;;;;;;4993705;28;20050;-73
2021/11/25 06:32:32;;;;;;;23.37;13.57;;;4.90;63.90;;;;;;4993454;28;20085;-71
2021/11/25 06:34:57;;;;;;;21.63;11.93;;;4.90;64.50;;;;;;4993899;28;20026;-72
2021/11/25 06:37:23;;;;;;;19.47;10.03;;;4.90;65.10;;;;;;4993793;28;20025;-71
2021/11/25 06:39:49;;;;;;;18.33;9.57;;;5.00;64.80;;;;;;4993231;28;20088;-69
2021/11/25 06:42:15;;;;;;;16.40;9.80;;;4.90;64.60;;;;;;4993350;28;20026;-69
2021/11/25 06:44:40;;;;;;;19.47;10.20;;;5.00;64.20;;;;;;4993530;28;20033;-71
2021/11/25 06:47:06;;;;;;;15.83;10.10;;;5.00;64.30;;;;;;4993516;28;20078;-68
2021/11/25 06:49:32;;;;;;;17.30;9.50;;;5.00;64.40;;;;;;4993513;28;20048;-71
2021/11/25 06:51:57;;;;;;;16.40;9.50;;;5.00;64.50;;;;;;4993529;28;20050;-71
2021/11/25 06:54:23;;;;;;;16.27;8.37;;;5.10;64.60;;;;;;4992982;28;20026;-68
2021/11/25 06:56:49;;;;;;;16.80;8.63;;;5.10;65.00;;;;;;4991797;28;20022;-70
2021/11/25 06:59:15;;;;;;;16.50;9.20;;;5.00;65.30;;;;;;4991971;28;20026;-67
2021/11/25 07:01:41;;;;;;;15.43;8.47;;;5.00;65.60;;;;;;4993878;28;20026;-68
2021/11/25 07:04:07;;;;;;;16.17;8.87;;;5.10;65.60;;;;;;4993542;28;20029;-67
2021/11/25 07:06:34;;;;;;;13.83;8.67;;;5.10;65.30;;;;;;4993257;28;20030;-67
2021/11/25 07:09:00;;;;;;;14.57;8.20;;;5.10;65.50;;;;;;4993012;28;20057;-68
2021/11/25 07:11:27;;;;;;;17.07;9.23;;;5.20;65.40;;;;;;4993269;28;20114;-69
2021/11/25 07:13:53;;;;;;;19.77;8.87;;;5.20;65.20;;;;;;4993208;28;20031;-68
2021/11/25 07:16:19;;;;;;;15.70;8.70;;;5.20;65.80;;;;;;4993028;28;20037;-67
2021/11/25 07:18:45;;;;;;;16.20;9.13;;;5.20;66.00;;;;;;4993503;28;20031;-69
2021/11/25 07:21:10;;;;;;;19.50;9.80;;;5.20;65.90;;;;;;4993243;28;20069;-68
2021/11/25 07:23:36;;;;;;;24.77;10.03;;;5.30;66.00;;;;;;4993379;28;20026;-68
2021/11/25 07:26:06;;;;;;;16.80;9.73;;;5.30;66.00;;;;;;4993621;28;20034;-72
2021/11/25 07:28:32;;;;;;;17.17;9.60;;;5.40;66.10;;;;;;4993223;28;20058;-72
2021/11/25 07:30:59;;;;;;;21.40;10.07;;;5.40;65.90;;;;;;4993506;28;20047;-72
2021/11/25 07:33:25;;;;;;;18.63;9.70;;;5.40;66.40;;;;;;4993630;28;20477;-69
2021/11/25 07:35:50;;;;;;;16.37;9.37;;;5.50;66.00;;;;;;4993618;28;20041;-68
2021/11/25 07:38:16;;;;;;;14.60;9.10;;;5.50;65.90;;;;;;4993328;28;20105;-71
2021/11/25 07:40:44;;;;;;;17.40;9.30;;;5.50;65.70;;;;;;4993076;28;20431;-67
2021/11/25 07:43:11;;;;;;;18.13;9.50;;;5.50;65.60;;;;;;4993424;28;20077;-70
2021/11/25 07:45:37;;;;;;;16.97;8.73;;;5.60;65.60;;;;;;4996508;28;20030;-71
2021/11/25 07:48:03;;;;;;;13.30;8.50;;;5.60;65.70;;;;;;4996817;28;20439;-71
2021/11/25 07:50:29;;;;;;;21.37;9.43;;;5.70;65.30;;;;;;4979460;28;20027;-72
2021/11/25 07:52:56;;;;;;;17.93;10.13;;;5.70;65.20;;;;;;4996998;28;20035;-69
2021/11/25 07:55:23;;;;;;;28.07;12.00;;;5.70;65.60;;;;;;4996664;28;20030;-71
2021/11/25 07:57:49;;;;;;;16.20;10.30;;;5.80;65.80;;;;;;4996778;28;20034;-68
2021/11/25 08:00:17;;;;;;;21.33;10.10;;;5.80;65.90;;;;;;4996601;28;20030;-71
2021/11/25 08:02:43;;;;;;;18.17;10.40;;;5.80;66.10;;;;;;4996558;28;20034;-70
2021/11/25 08:05:10;;;;;;;21.53;10.70;;;5.80;66.60;;;;;;4996616;28;20023;-70
2021/11/25 08:07:37;;;;;;;23.07;11.33;;;5.90;66.30;;;;;;4996309;28;20403;-67
2021/11/25 08:10:05;;;;;;;26.07;12.63;;;5.90;65.90;;;;;;4996346;28;20137;-71
2021/11/25 08:12:31;;;;;;;27.27;12.47;;;5.90;66.10;;;;;;4996590;28;20037;-70
2021/11/25 08:14:56;;;;;;;31.43;13.57;;;5.90;66.30;;;;;;4996298;28;20034;-68
2021/11/25 08:17:22;;;;;;;28.07;14.03;;;5.90;66.30;;;;;;4996470;28;20065;-66
2021/11/25 08:19:48;;;;;;;25.63;14.07;;;5.90;66.30;;;;;;4996030;28;20034;-67
2021/11/25 08:22:15;;;;;;;26.00;16.03;;;5.90;66.40;;;;;;4996262;28;20382;-69
2021/11/25 08:24:41;;;;;;;24.67;14.60;;;5.90;66.50;;;;;;4996303;28;20497;-68
2021/11/25 08:27:07;;;;;;;24.90;14.83;;;5.90;66.20;;;;;;4994861;28;20129;-69
2021/11/25 08:29:33;;;;;;;25.50;15.47;;;5.90;66.00;;;;;;4995572;28;20446;-67
2021/11/25 08:31:59;;;;;;;30.80;14.83;;;5.90;65.80;;;;;;4995562;28;20030;-67
2021/11/25 08:34:26;;;;;;;30.20;15.33;;;6.00;66.00;;;;;;4978300;28;20034;-66
2021/11/25 08:36:52;;;;;;;27.77;14.73;;;6.00;66.30;;;;;;4995905;28;20034;-67
2021/11/25 08:39:19;;;;;;;25.70;13.80;;;6.00;66.30;;;;;;4995589;28;20364;-67
2021/11/25 08:41:44;;;;;;;25.87;14.40;;;6.00;66.40;;;;;;4995766;28;20030;-67
2021/11/25 08:44:10;;;;;;;20.93;14.07;;;6.00;67.20;;;;;;4995835;28;20034;-67
2021/11/25 08:46:36;;;;;;;26.57;13.67;;;6.10;66.90;;;;;;4995439;28;20497;-67
2021/11/25 08:49:01;;;;;;;27.73;13.40;;;6.10;67.00;;;;;;4995977;28;20112;-67
2021/11/25 08:51:30;;;;;;;29.13;14.30;;;6.10;66.70;;;;;;4995664;28;20174;-68
2021/11/25 08:53:57;;;;;;;30.90;12.53;;;6.10;66.60;;;;;;4995415;28;20033;-68
2021/11/25 08:56:23;;;;;;;23.40;10.83;;;6.10;66.30;;;;;;4994145;28;20025;-68
2021/11/25 08:58:50;;;;;;;42.07;12.30;;;6.20;66.10;;;;;;4995067;28;20101;-67
2021/11/25 09:01:17;;;;;;;16.13;8.73;;;6.20;65.90;;;;;;4994122;28;20032;-66
2021/11/25 09:03:43;;;;;;;14.20;8.50;;;6.20;65.50;;;;;;4995472;28;20367;-67
2021/11/25 09:06:09;;;;;;;11.77;8.23;;;6.30;65.10;;;;;;4995071;28;20048;-67
2021/11/25 09:08:35;;;;;;;22.60;9.00;;;6.30;64.70;;;;;;4995017;28;20057;-67
2021/11/25 09:11:01;;;;;;;11.20;7.57;;;6.30;64.60;;;;;;4995174;28;20061;-67
2021/11/25 09:13:27;;;;;;;19.07;8.83;;;6.30;64.80;;;;;;4994635;28;20058;-67
2021/11/25 09:15:52;;;;;;;18.63;9.20;;;6.30;64.80;;;;;;4994538;28;20028;-67
2021/11/25 09:18:18;;;;;;;23.10;9.43;;;6.40;64.50;;;;;;4994440;28;20380;-67
2021/11/25 09:20:45;;;;;;;21.90;10.70;;;6.40;64.60;;;;;;4994428;28;20713;-67
2021/11/25 09:23:16;;;;;;;15.90;8.63;;;6.40;64.20;;;;;;4994251;28;20027;-67
2021/11/25 09:25:43;;;;;;;12.60;8.73;;;6.50;64.10;;;;;;4994627;28;20121;-68
2021/11/25 09:28:12;;;;;;;12.93;9.10;;;6.60;64.60;;;;;;4995091;28;20026;-67
2021/11/25 09:30:39;;;;;;;15.80;9.03;;;6.60;64.20;;;;;;4994683;28;20022;-68
2021/11/25 09:33:06;;;;;;;17.53;10.57;;;6.60;64.00;;;;;;4995007;28;20065;-67
2021/11/25 09:35:32;;;;;;;13.93;8.93;;;6.60;64.20;;;;;;4994984;28;20014;-67
2021/11/25 09:37:58;;;;;;;17.40;9.30;;;6.60;64.10;;;;;;4994880;28;20145;-67
2021/11/25 09:40:27;;;;;;;13.77;9.53;;;6.60;64.10;;;;;;4994772;28;20509;-67
2021/11/25 09:42:59;;;;;;;12.93;8.53;;;6.70;63.90;;;;;;4994761;28;20018;-67
2021/11/25 09:45:26;;;;;;;12.98;8.23;;;6.70;63.80;;;;;;4994765;28;20025;-67
2021/11/25 09:47:57;;;;;;;12.07;8.43;;;6.80;63.80;;;;;;4994413;28;20398;-67
2021/11/25 09:50:25;;;;;;;15.87;9.60;;;6.80;64.20;;;;;;4994574;28;20049;-66
2021/11/25 09:52:53;;;;;;;19.73;10.30;;;6.80;64.10;;;;;;4994098;28;20518;-67
2021/11/25 09:55:20;;;;;;;13.97;9.67;;;6.90;64.00;;;;;;4994404;28;20031;-67
2021/11/25 09:57:46;;;;;;;15.53;9.67;;;6.90;64.20;;;;;;4994254;28;20117;-68
2021/11/25 10:00:13;;;;;;;12.77;8.17;;;6.90;64.60;;;;;;4994253;28;20027;-69
2021/11/25 10:02:39;;;;;;;13.17;9.27;;;6.90;65.10;;;;;;4994355;28;20038;-67
2021/11/25 10:05:05;;;;;;;17.23;8.17;;;7.00;64.90;;;;;;4994277;28;20014;-67
2021/11/25 10:07:37;;;;;;;12.97;7.33;;;7.00;65.90;;;;;;4993763;28;20403;-67
2021/11/25 10:10:19;;;;;;;15.87;7.97;;;7.10;65.70;;;;;;4994028;28;20376;-67
2021/11/25 10:12:47;;;;;;;12.50;7.13;;;7.20;65.30;;;;;;4994095;28;20030;-67
2021/11/25 10:15:31;;;;;;;15.07;8.03;;;7.20;64.80;;;;;;4993801;28;20025;-68
2021/11/25 10:18:00;;;;;;;16.57;8.33;;;7.20;64.70;;;;;;4993716;28;20026;-67
2021/11/25 10:20:33;;;;;;;14.17;7.73;;;7.20;64.60;;;;;;4992781;28;20030;-68
2021/11/25 10:23:02;;;;;;;14.83;8.40;;;7.20;64.70;;;;;;4994084;28;20359;-69
2021/11/25 10:25:49;;;;;;;13.50;8.20;;;7.30;65.00;;;;;;4993979;28;20104;-68
2021/11/25 10:28:28;;;;;;;13.57;7.43;;;7.30;65.70;;;;;;4994058;28;20058;-68
2021/11/25 10:30:57;;;;;;;10.80;6.83;;;7.30;65.30;;;;;;4993794;28;20022;-68
2021/11/25 10:34:07;;;;;;;12.57;8.30;;;7.30;65.10;;;;;;4993046;28;20030;-69
2021/11/25 10:36:39;;;;;;;12.20;7.83;;;7.30;65.10;;;;;;4977924;28;20042;-69
2021/11/25 10:41:52;;;;;;;15.73;7.40;;;7.40;65.50;;;;;;4993615;28;20060;-68
2021/11/25 10:44:23;;;;;;;22.03;8.13;;;7.40;65.60;;;;;;4993984;28;20026;-68
2021/11/25 10:46:52;;;;;;;11.70;7.20;;;7.40;65.40;;;;;;4993896;28;20401;-68
2021/11/25 10:49:58;;;;;;;11.10;7.27;;;7.40;65.60;;;;;;4993471;28;20376;-68
2021/11/25 10:52:40;;;;;;;17.03;7.60;;;7.50;65.90;;;;;;4933296;29;20198;-68
2021/11/25 10:55:07;;;;;;;12.97;8.03;;;7.50;65.80;;;;;;4989593;28;20039;-68
2021/11/25 10:57:39;;;;;;;15.07;7.93;;;7.60;66.60;;;;;;4993435;28;20069;-68
2021/11/25 11:00:19;;;;;;;13.60;7.70;;;7.60;66.10;;;;;;4993323;28;20533;-68
2021/11/25 11:02:45;;;;;;;12.20;7.83;;;7.60;66.10;;;;;;4976053;28;20089;-67
2021/11/25 11:05:21;;;;;;;25.13;7.97;;;7.70;66.60;;;;;;4993360;28;20070;-67
2021/11/25 11:07:47;;;;;;;13.00;7.27;;;7.80;66.90;;;;;;4992969;28;20108;-67
2021/11/25 11:10:21;;;;;;;11.10;7.77;;;7.80;66.60;;;;;;4993477;28;20110;-67
2021/11/25 11:12:59;;;;;;;13.33;7.60;;;7.80;66.70;;;;;;4993686;28;20042;-68
2021/11/25 11:15:28;;;;;;;15.77;7.80;;;7.80;66.20;;;;;;4993374;28;20364;-67
2021/11/25 11:20:49;;;;;;;12.87;7.87;;;7.90;66.40;;;;;;4996768;28;20045;-67
2021/11/25 11:23:23;;;;;;;12.15;7.72;;;7.90;66.50;;;;;;4997121;28;20035;-67
2021/11/25 11:25:52;;;;;;;11.67;7.50;;;7.90;66.50;;;;;;4997112;28;20113;-68
2021/11/25 11:28:18;;;;;;;12.30;7.97;;;7.90;66.50;;;;;;4997274;28;20088;-67
2021/11/25 11:30:46;;;;;;;11.30;8.17;;;7.90;67.10;;;;;;4996854;28;20026;-67
2021/11/25 11:33:14;;;;;;;15.10;9.13;;;7.90;66.90;;;;;;4997232;28;20153;-67
2021/11/25 11:35:41;;;;;;;11.47;7.10;;;7.90;67.20;;;;;;4997112;28;20054;-68
2021/11/25 11:38:13;;;;;;;12.57;7.50;;;7.90;67.10;;;;;;4996966;28;20089;-67
2021/11/25 11:40:39;;;;;;;11.30;7.73;;;8.00;67.20;;;;;;4997078;28;20029;-67
2021/11/25 11:43:05;;;;;;;11.40;6.87;;;8.00;67.00;;;;;;4996856;28;20022;-67
2021/11/25 11:45:34;;;;;;;11.03;7.03;;;8.10;67.40;;;;;;4996763;28;20256;-67
2021/11/25 11:48:03;;;;;;;10.43;6.73;;;8.10;67.80;;;;;;4996925;28;20479;-66
2021/11/25 11:50:35;;;;;;;10.90;6.77;;;8.20;67.90;;;;;;4996619;28;20029;-67
2021/11/25 11:53:18;;;;;;;14.68;6.70;;;8.20;67.80;;;;;;4996629;28;20054;-67
2021/11/25 11:55:48;;;;;;;9.93;7.00;;;8.20;67.30;;;;;;4996618;28;20479;-67
2021/11/25 11:58:20;;;;;;;12.83;8.03;;;8.30;67.50;;;;;;4996613;28;20066;-67
2021/11/25 12:00:46;;;;;;;13.00;8.23;;;8.30;67.50;;;;;;4996259;28;20046;-68
2021/11/25 12:03:28;;;;;;;11.30;7.50;;;8.30;67.10;;;;;;4996378;28;20094;-67
2021/11/25 12:05:54;;;;;;;11.40;7.78;;;8.40;67.00;;;;;;4996156;28;20038;-67
2021/11/25 12:08:20;;;;;;;10.03;7.03;;;8.40;67.30;;;;;;4996146;28;20504;-67
2021/11/25 12:11:01;;;;;;;12.00;8.00;;;8.40;67.00;;;;;;4996071;28;20033;-67
2021/11/25 12:13:57;;;;;;;13.47;7.70;;;8.40;67.20;;;;;;4996201;28;20031;-67
2021/11/25 12:16:23;;;;;;;11.30;7.53;;;8.40;67.20;;;;;;4996174;28;20490;-67
2021/11/25 12:18:54;;;;;;;11.47;7.30;;;8.40;67.10;;;;;;4996021;28;20061;-66
2021/11/25 12:21:46;;;;;;;12.40;7.90;;;8.40;67.30;;;;;;4996077;28;20494;-67
2021/11/25 12:24:25;;;;;;;16.60;7.27;;;8.40;67.70;;;;;;4994601;28;20034;-68
2021/11/25 12:27:07;;;;;;;10.53;6.93;;;8.50;67.70;;;;;;4992142;28;20030;-67
2021/11/25 12:29:36;;;;;;;10.52;7.20;;;8.50;67.70;;;;;;4994765;28;20030;-66
2021/11/25 12:32:39;;;;;;;13.30;7.37;;;8.50;68.00;;;;;;4993293;28;20019;-66
2021/11/25 12:35:11;;;;;;;;;;;8.50;67.80;;;;;;4988800;28;20019;-66
2021/11/25 12:38:00;;;;;;;10.40;6.63;;;8.50;67.50;;;;;;4984633;28;20259;-67
2021/11/25 12:40:25;;;;;;;10.20;6.77;;;8.50;67.60;;;;;;4990896;28;20044;-66
2021/11/25 12:42:58;;;;;;;11.03;7.30;;;8.50;67.70;;;;;;4994305;28;20034;-65
2021/11/25 12:45:38;;;;;;;12.50;7.22;;;8.50;68.20;;;;;;4994098;28;20022;-66
2021/11/25 12:48:10;;;;;;;10.17;6.70;;;8.50;68.20;;;;;;4995203;28;20034;-66
2021/11/25 12:50:56;;;;;;;13.60;7.45;;;8.50;68.10;;;;;;4995308;28;20463;-65
2021/11/25 12:53:36;;;;;;;10.17;7.53;;;8.50;68.80;;;;;;4995739;28;20030;-66
2021/11/25 12:56:05;;;;;;;12.43;7.43;;;8.50;68.80;;;;;;4995119;28;20446;-66
2021/11/25 12:58:39;;;;;;;12.27;8.20;;;8.60;68.90;;;;;;4995345;28;20106;-67
2021/11/25 13:01:09;;;;;;;13.63;7.73;;;8.50;69.10;;;;;;4995551;28;20069;-66
2021/11/25 13:03:35;;;;;;;11.93;6.70;;;8.50;69.30;;;;;;4995468;28;20018;-67
2021/11/25 13:06:02;;;;;;;13.70;6.90;;;8.50;69.30;;;;;;4978082;28;20042;-67
2021/11/25 13:08:34;;;;;;;9.57;6.50;;;8.50;69.40;;;;;;4994844;28;20124;-67
2021/11/25 13:11:02;;;;;;;9.67;7.00;;;8.50;69.60;;;;;;4995340;28;20443;-67
2021/11/25 13:13:32;;;;;;;17.07;8.30;;;8.50;69.70;;;;;;4995197;28;20061;-66
2021/11/25 13:16:07;;;;;;;12.77;8.03;;;8.60;69.80;;;;;;4995232;28;20459;-66
2021/11/25 13:18:47;;;;;;;11.17;7.83;;;8.60;70.20;;;;;;4994993;28;20026;-66